Time;durP1;ratioP1;P1;durP2;ratioP2;P2;SDS_P1;SDS_P2;PMS_P1;PMS_P2;Temp;Humidity;BMP_temperature;BMP_pressure;BME280_temperature;BME280_humidity;BME280_pressure;Samples;Min_cycle;Max_cycle;Signal;HPM_P1;HPM_P2
2024/02/18 00:01:17;;;;;;;47.90;20.30;;;6.50;99.90;;;;;;5038364;28;20207;-60
2024/02/18 00:03:43;;;;;;;55.33;22.37;;;6.60;99.90;;;;;;5043867;28;20621;-61
2024/02/18 00:06:10;;;;;;;48.03;20.77;;;6.60;99.90;;;;;;5026190;28;20188;-60
2024/02/18 00:08:35;;;;;;;53.03;21.20;;;6.60;99.90;;;;;;5027241;28;20251;-59
2024/02/18 00:11:01;;;;;;;50.73;21.93;;;6.60;99.90;;;;;;5028155;28;20195;-60
2024/02/18 00:13:27;;;;;;;54.07;21.37;;;6.50;99.90;;;;;;5052349;28;20190;-60
2024/02/18 00:15:52;;;;;;;52.50;21.07;;;6.60;99.90;;;;;;5051931;28;20703;-60
2024/02/18 00:18:18;;;;;;;46.57;19.37;;;6.50;99.90;;;;;;5051585;28;20542;-60
2024/02/18 00:20:43;;;;;;;42.17;19.50;;;6.50;99.90;;;;;;5034100;28;20215;-60
2024/02/18 00:23:09;;;;;;;46.67;18.70;;;6.60;99.90;;;;;;5032039;28;20237;-60
2024/02/18 00:25:35;;;;;;;41.90;18.53;;;6.60;99.90;;;;;;5031853;28;20179;-60
2024/02/18 00:28:00;;;;;;;41.83;18.13;;;6.60;99.90;;;;;;5019763;28;20212;-60
2024/02/18 00:30:26;;;;;;;41.83;18.40;;;6.50;99.90;;;;;;5026185;28;20282;-58
2024/02/18 00:32:52;;;;;;;42.13;19.50;;;6.50;99.90;;;;;;5032526;28;20689;-60
2024/02/18 00:35:18;;;;;;;38.97;19.23;;;6.50;99.90;;;;;;5045850;28;20191;-61
2024/02/18 00:37:43;;;;;;;36.03;17.73;;;6.40;99.90;;;;;;5015205;28;20283;-60
2024/02/18 00:40:09;;;;;;;40.83;19.13;;;6.30;99.90;;;;;;5028050;28;20189;-59
2024/02/18 00:42:35;;;;;;;46.60;20.60;;;6.40;99.90;;;;;;5019708;28;20207;-59
2024/02/18 00:45:00;;;;;;;43.07;20.00;;;6.40;99.90;;;;;;5015415;28;20191;-60
2024/02/18 00:47:26;;;;;;;43.77;19.17;;;6.40;99.90;;;;;;5038126;28;20199;-60
2024/02/18 00:49:51;;;;;;;58.33;19.63;;;6.50;99.90;;;;;;5032727;28;20265;-60
2024/02/18 00:52:17;;;;;;;42.20;19.70;;;6.50;99.90;;;;;;5037325;28;20199;-58
2024/02/18 00:54:43;;;;;;;42.73;20.33;;;6.50;99.90;;;;;;5033672;28;20276;-60
2024/02/18 00:57:08;;;;;;;42.20;18.77;;;6.60;99.90;;;;;;5039112;28;20188;-61
2024/02/18 00:59:34;;;;;;;40.10;19.00;;;6.60;99.90;;;;;;5039507;28;20668;-60
2024/02/18 01:02:00;;;;;;;47.73;18.67;;;6.60;99.90;;;;;;5019617;28;20235;-60
2024/02/18 01:04:25;;;;;;;39.07;18.77;;;6.50;99.90;;;;;;5033843;28;20183;-60
2024/02/18 01:06:51;;;;;;;36.57;17.80;;;6.50;99.90;;;;;;5040112;28;20197;-60
2024/02/18 01:09:16;;;;;;;41.43;17.00;;;6.50;99.90;;;;;;5028794;28;20183;-60
2024/02/18 01:11:42;;;;;;;40.10;18.80;;;6.50;99.90;;;;;;5033208;28;20201;-60
2024/02/18 01:14:08;;;;;;;46.33;18.97;;;6.40;99.90;;;;;;5031193;28;20227;-60
2024/02/18 01:16:33;;;;;;;33.60;16.20;;;6.40;99.90;;;;;;5046787;28;21060;-60
2024/02/18 01:18:59;;;;;;;35.33;16.40;;;6.30;99.90;;;;;;5043836;28;20207;-60
2024/02/18 01:21:24;;;;;;;41.33;16.97;;;6.20;99.90;;;;;;5032755;28;20614;-61
2024/02/18 01:23:50;;;;;;;37.53;16.67;;;6.20;99.90;;;;;;5025971;28;20192;-60
2024/02/18 01:26:16;;;;;;;36.40;15.60;;;6.10;99.90;;;;;;5042269;28;20183;-60
2024/02/18 01:28:42;;;;;;;36.07;16.53;;;6.10;99.90;;;;;;5031743;28;20211;-60
2024/02/18 01:31:08;;;;;;;38.60;16.50;;;6.10;99.90;;;;;;5036692;28;20278;-59
2024/02/18 01:33:33;;;;;;;34.07;15.93;;;6.10;99.90;;;;;;5034196;28;20179;-60
2024/02/18 01:35:59;;;;;;;30.10;14.07;;;6.00;99.90;;;;;;5038474;28;20172;-59
2024/02/18 01:38:25;;;;;;;28.97;14.77;;;6.00;99.90;;;;;;5031932;28;20243;-60
2024/02/18 01:40:50;;;;;;;36.60;16.23;;;6.00;99.90;;;;;;5029080;28;20253;-59
2024/02/18 01:43:17;;;;;;;38.33;17.83;;;6.00;99.90;;;;;;5044887;28;20199;-60
2024/02/18 01:45:47;;;;;;;64.33;19.10;;;6.00;99.90;;;;;;5048488;28;20650;-60
2024/02/18 01:48:17;;;;;;;41.07;16.43;;;6.00;99.90;;;;;;5021332;28;20222;-60
2024/02/18 01:50:44;;;;;;;32.87;15.47;;;6.10;99.90;;;;;;5018066;28;20200;-59
2024/02/18 01:53:10;;;;;;;35.30;17.77;;;6.10;99.90;;;;;;5038067;28;20230;-60
2024/02/18 01:55:36;;;;;;;35.33;17.13;;;6.10;99.90;;;;;;5022107;28;20184;-59
2024/02/18 01:58:04;;;;;;;73.53;18.60;;;6.00;99.90;;;;;;5041657;28;20187;-60
2024/02/18 02:00:30;;;;;;;38.87;17.90;;;6.10;99.90;;;;;;5033910;28;20632;-59
2024/02/18 02:02:56;;;;;;;59.40;17.13;;;6.10;99.90;;;;;;5014213;28;20199;-58
2024/02/18 02:05:21;;;;;;;36.87;16.93;;;6.10;99.90;;;;;;5028267;28;20183;-60
2024/02/18 02:07:50;;;;;;;35.33;15.50;;;6.20;99.90;;;;;;5038031;28;20211;-59
2024/02/18 02:10:16;;;;;;;45.90;17.70;;;6.10;99.90;;;;;;5009146;28;20183;-59
2024/02/18 02:12:42;;;;;;;45.83;16.97;;;6.10;99.90;;;;;;5029014;28;20259;-60
2024/02/18 02:15:12;;;;;;;53.40;16.60;;;6.10;99.90;;;;;;5041643;28;20232;-53
2024/02/18 02:17:38;;;;;;;36.50;15.03;;;6.10;99.90;;;;;;5033881;28;20187;-53
2024/02/18 02:20:09;;;;;;;34.47;15.90;;;6.10;99.90;;;;;;5025848;28;20594;-53
2024/02/18 02:22:38;;;;;;;36.47;16.30;;;6.10;99.90;;;;;;5009988;28;20195;-55
2024/02/18 02:25:04;;;;;;;49.00;16.03;;;6.10;99.90;;;;;;5017307;28;20191;-55
2024/02/18 02:27:37;;;;;;;35.73;16.47;;;6.10;99.90;;;;;;5040592;28;20224;-57
2024/02/18 02:30:04;;;;;;;49.87;17.73;;;6.10;99.90;;;;;;5025379;28;20266;-56
2024/02/18 02:32:31;;;;;;;38.37;16.97;;;6.20;99.90;;;;;;5028071;28;20341;-55
2024/02/18 02:34:58;;;;;;;38.53;15.83;;;6.20;99.90;;;;;;5033399;28;20215;-53
2024/02/18 02:37:23;;;;;;;35.17;16.67;;;6.20;99.90;;;;;;5047717;28;20557;-52
2024/02/18 02:39:50;;;;;;;36.43;15.73;;;6.20;99.90;;;;;;5036663;28;20196;-54
2024/02/18 02:42:16;;;;;;;36.50;16.97;;;6.20;99.90;;;;;;5053082;28;20214;-51
2024/02/18 02:44:42;;;;;;;39.70;15.93;;;6.20;99.90;;;;;;5035622;28;20233;-55
2024/02/18 02:47:07;;;;;;;34.27;16.57;;;6.30;99.90;;;;;;5019992;28;20211;-56
2024/02/18 02:49:33;;;;;;;42.97;17.20;;;6.30;99.90;;;;;;5029924;28;20181;-54
2024/02/18 02:51:59;;;;;;;36.77;16.53;;;6.20;99.90;;;;;;5037754;28;20560;-53
2024/02/18 02:54:24;;;;;;;40.30;16.97;;;6.10;99.90;;;;;;5028169;28;20180;-57
2024/02/18 02:56:50;;;;;;;35.13;16.60;;;6.20;99.90;;;;;;5022105;28;20269;-54
2024/02/18 02:59:15;;;;;;;32.83;15.30;;;6.10;99.90;;;;;;5024012;28;20323;-55
2024/02/18 03:01:41;;;;;;;33.27;14.90;;;6.20;99.90;;;;;;5028091;28;20204;-58
2024/02/18 03:04:08;;;;;;;33.77;15.73;;;6.20;99.90;;;;;;5027836;28;20297;-56
2024/02/18 03:06:34;;;;;;;44.97;16.50;;;6.30;99.90;;;;;;5036365;28;20187;-56
2024/02/18 03:09:00;;;;;;;33.53;15.40;;;6.30;99.90;;;;;;5027908;28;20298;-56
2024/02/18 03:11:26;;;;;;;36.27;17.00;;;6.30;99.90;;;;;;5022550;28;20200;-53
2024/02/18 03:13:51;;;;;;;33.83;14.40;;;6.30;99.90;;;;;;5049946;28;20222;-57
2024/02/18 03:16:17;;;;;;;35.83;15.30;;;6.20;99.90;;;;;;5052478;28;20191;-54
2024/02/18 03:18:42;;;;;;;37.00;14.73;;;6.20;99.90;;;;;;5033681;28;20631;-52
2024/02/18 03:21:09;;;;;;;49.87;12.77;;;6.20;99.90;;;;;;5038267;28;20215;-55
2024/02/18 03:23:34;;;;;;;30.93;14.63;;;6.30;99.90;;;;;;5036514;28;20193;-58
2024/02/18 03:26:00;;;;;;;34.97;13.77;;;6.30;99.90;;;;;;5040327;28;20733;-58
2024/02/18 03:28:25;;;;;;;50.63;14.73;;;6.30;99.90;;;;;;5033410;28;20207;-56
2024/02/18 03:30:51;;;;;;;34.93;13.43;;;6.20;99.90;;;;;;5023223;28;20290;-53
2024/02/18 03:33:18;;;;;;;29.70;13.63;;;6.20;99.90;;;;;;5040991;28;20192;-54
2024/02/18 03:35:44;;;;;;;39.07;13.73;;;6.20;99.90;;;;;;5039230;28;20520;-55
2024/02/18 03:38:10;;;;;;;28.40;13.80;;;6.20;99.90;;;;;;5042521;28;20184;-55
2024/02/18 03:40:36;;;;;;;39.23;13.33;;;6.20;99.90;;;;;;5028647;28;20215;-53
2024/02/18 03:43:02;;;;;;;29.47;13.13;;;6.20;99.90;;;;;;5018958;28;20207;-52
2024/02/18 03:45:28;;;;;;;33.60;13.03;;;6.20;99.90;;;;;;5052047;28;20190;-56
2024/02/18 03:47:53;;;;;;;34.30;13.87;;;6.30;99.90;;;;;;5040792;28;20211;-56
2024/02/18 03:50:19;;;;;;;43.50;13.93;;;6.20;99.90;;;;;;5017873;28;20216;-54
2024/02/18 03:52:45;;;;;;;25.33;10.80;;;6.20;99.90;;;;;;5037968;28;20176;-56
2024/02/18 03:55:11;;;;;;;26.17;11.40;;;6.20;99.90;;;;;;5040164;28;20187;-56
2024/02/18 03:57:37;;;;;;;36.10;11.83;;;6.10;99.90;;;;;;5039390;28;20175;-56
2024/02/18 04:00:05;;;;;;;27.67;12.30;;;6.10;99.90;;;;;;5032083;28;20184;-53
2024/02/18 04:02:34;;;;;;;46.53;11.00;;;6.10;99.90;;;;;;5032545;28;20208;-55
2024/02/18 04:04:59;;;;;;;21.97;11.17;;;6.10;99.90;;;;;;5026378;28;20183;-52
2024/02/18 04:07:25;;;;;;;25.90;10.93;;;6.10;99.90;;;;;;5034647;28;20333;-57
2024/02/18 04:09:50;;;;;;;55.77;11.63;;;6.10;99.90;;;;;;5051445;28;20274;-59
2024/02/18 04:12:16;;;;;;;33.83;13.00;;;6.10;99.90;;;;;;5037972;28;20223;-51
2024/02/18 04:14:42;;;;;;;42.70;11.73;;;6.10;99.90;;;;;;5048661;28;20175;-52
2024/02/18 04:17:08;;;;;;;21.67;9.97;;;6.00;99.90;;;;;;5038332;28;20187;-53
2024/02/18 04:19:33;;;;;;;34.90;11.20;;;6.00;99.90;;;;;;5015727;28;20215;-56
2024/02/18 04:21:59;;;;;;;40.07;11.80;;;5.90;99.90;;;;;;5039112;28;20218;-55
2024/02/18 04:24:24;;;;;;;37.50;13.50;;;5.70;99.90;;;;;;5046169;28;20564;-59
2024/02/18 04:26:50;;;;;;;35.37;12.70;;;5.70;99.90;;;;;;5042153;28;20568;-55
2024/02/18 04:29:16;;;;;;;26.83;12.10;;;5.70;99.90;;;;;;5045882;28;20649;-55
2024/02/18 04:31:41;;;;;;;32.07;11.83;;;5.70;99.90;;;;;;5038593;28;20619;-54
2024/02/18 04:34:07;;;;;;;36.50;12.33;;;5.70;99.90;;;;;;5036054;28;20265;-58
2024/02/18 04:36:32;;;;;;;21.30;10.87;;;5.70;99.90;;;;;;5035332;28;20200;-53
2024/02/18 04:38:58;;;;;;;42.60;12.40;;;5.80;99.90;;;;;;5041534;28;20208;-52
2024/02/18 04:41:23;;;;;;;23.93;11.37;;;5.80;99.90;;;;;;5044475;28;20302;-57
2024/02/18 04:43:49;;;;;;;68.57;12.80;;;5.80;99.90;;;;;;5029297;28;20202;-58
2024/02/18 04:46:14;;;;;;;60.53;11.40;;;5.80;99.90;;;;;;5024370;28;20250;-55
2024/02/18 04:48:40;;;;;;;54.37;13.20;;;5.70;99.90;;;;;;5022737;28;20211;-57
2024/02/18 04:51:05;;;;;;;21.50;10.33;;;5.70;99.90;;;;;;5038735;28;20216;-57
2024/02/18 04:53:31;;;;;;;53.77;11.03;;;5.70;99.90;;;;;;5038507;28;20643;-56
2024/02/18 04:55:57;;;;;;;29.63;10.07;;;5.60;99.90;;;;;;5028196;28;20298;-55
2024/02/18 04:58:23;;;;;;;20.40;10.10;;;5.60;99.90;;;;;;5031336;28;20203;-54
2024/02/18 05:00:48;;;;;;;19.90;9.90;;;5.70;99.90;;;;;;5034086;28;20226;-55
2024/02/18 05:03:14;;;;;;;35.20;10.37;;;5.70;99.90;;;;;;5037433;28;20192;-56
2024/02/18 05:05:40;;;;;;;35.47;9.67;;;5.70;99.90;;;;;;5014332;28;20250;-59
2024/02/18 05:08:05;;;;;;;18.20;9.53;;;5.70;99.90;;;;;;5042368;28;20224;-56
2024/02/18 05:10:31;;;;;;;24.63;10.00;;;5.70;99.90;;;;;;5027243;28;20389;-56
2024/02/18 05:12:56;;;;;;;29.90;9.50;;;5.70;99.90;;;;;;5032492;28;20184;-55
2024/02/18 05:15:24;;;;;;;18.67;10.00;;;5.60;99.90;;;;;;5042071;28;20252;-53
2024/02/18 05:17:49;;;;;;;21.97;9.10;;;5.60;99.90;;;;;;5039759;28;20194;-54
2024/02/18 05:20:15;;;;;;;19.00;9.63;;;5.60;99.90;;;;;;5025211;28;20196;-57
2024/02/18 05:22:41;;;;;;;20.50;9.23;;;5.60;99.90;;;;;;5011356;28;20243;-53
2024/02/18 05:25:06;;;;;;;27.63;9.40;;;5.70;99.90;;;;;;5033614;28;20219;-57
2024/02/18 05:27:32;;;;;;;17.00;9.00;;;5.70;99.90;;;;;;5033757;28;20634;-55
2024/02/18 05:29:58;;;;;;;47.80;9.70;;;5.70;99.90;;;;;;5030055;28;20930;-54
2024/02/18 05:32:25;;;;;;;20.87;8.43;;;5.70;99.90;;;;;;5021853;28;20269;-58
2024/02/18 05:34:50;;;;;;;47.63;10.23;;;5.70;99.90;;;;;;5021903;28;20286;-56
2024/02/18 05:37:16;;;;;;;17.67;8.90;;;5.60;99.90;;;;;;5037777;28;20722;-54
2024/02/18 05:39:42;;;;;;;30.43;8.50;;;5.60;99.90;;;;;;5020824;28;20199;-55
2024/02/18 05:42:07;;;;;;;39.20;9.27;;;5.60;99.90;;;;;;5041835;28;20204;-53
2024/02/18 05:44:33;;;;;;;31.73;8.53;;;5.60;99.90;;;;;;5018427;28;20204;-54
2024/02/18 05:46:59;;;;;;;24.20;8.90;;;5.60;99.90;;;;;;5013416;28;20186;-56
2024/02/18 05:49:24;;;;;;;17.90;8.73;;;5.60;99.90;;;;;;5020694;28;20573;-58
2024/02/18 05:51:53;;;;;;;22.97;9.50;;;5.60;99.90;;;;;;5021825;28;20215;-55
2024/02/18 05:54:23;;;;;;;19.90;8.97;;;5.70;99.90;;;;;;5040295;28;20213;-54
2024/02/18 05:56:49;;;;;;;33.03;9.50;;;5.70;99.90;;;;;;5046283;28;20195;-57
2024/02/18 05:59:14;;;;;;;20.60;8.63;;;5.60;99.90;;;;;;5019930;28;20175;-56
2024/02/18 06:01:40;;;;;;;20.90;8.53;;;5.50;99.90;;;;;;5049212;28;20206;-52
2024/02/18 06:04:05;;;;;;;35.30;9.07;;;5.40;99.90;;;;;;5024976;28;20252;-53
2024/02/18 06:06:32;;;;;;;45.13;10.40;;;5.50;99.90;;;;;;5024338;28;20201;-54
2024/02/18 06:08:57;;;;;;;30.47;8.60;;;5.50;99.90;;;;;;5013095;28;20296;-53
2024/02/18 06:11:23;;;;;;;17.43;8.27;;;5.50;99.90;;;;;;5043791;28;20741;-53
2024/02/18 06:13:48;;;;;;;47.30;8.77;;;5.50;99.90;;;;;;5031488;28;20192;-53
2024/02/18 06:16:14;;;;;;;43.67;8.47;;;5.50;99.90;;;;;;5042545;28;20179;-55
2024/02/18 06:18:40;;;;;;;42.97;9.03;;;5.50;99.90;;;;;;5048787;28;20191;-57
2024/02/18 06:21:05;;;;;;;34.73;8.33;;;5.50;99.90;;;;;;5041983;28;20215;-52
2024/02/18 06:23:31;;;;;;;16.07;7.80;;;5.40;99.90;;;;;;5017859;28;20603;-56
2024/02/18 06:25:56;;;;;;;23.15;12.10;;;5.50;99.90;;;;;;5037897;28;20919;-57
2024/02/18 06:28:23;;;;;;;22.67;9.40;;;5.60;99.90;;;;;;5040717;28;20743;-53
2024/02/18 06:30:48;;;;;;;34.93;8.77;;;5.60;99.90;;;;;;5046433;28;20546;-57
2024/02/18 06:33:14;;;;;;;15.27;7.60;;;5.60;99.90;;;;;;5009492;28;20686;-56
2024/02/18 06:35:39;;;;;;;31.57;8.30;;;5.60;99.90;;;;;;5017753;28;20180;-55
2024/02/18 06:38:05;;;;;;;33.60;8.57;;;5.60;99.90;;;;;;5006664;28;20552;-55
2024/02/18 06:40:31;;;;;;;21.47;8.03;;;5.50;99.90;;;;;;5041114;28;20215;-53
2024/02/18 06:42:57;;;;;;;25.40;8.53;;;5.50;99.90;;;;;;5032654;28;20203;-53
2024/02/18 06:45:22;;;;;;;18.83;7.97;;;5.50;99.90;;;;;;5031541;28;20175;-54
2024/02/18 06:47:48;;;;;;;24.10;7.83;;;5.50;99.90;;;;;;5017785;28;20538;-57
2024/02/18 06:50:15;;;;;;;38.77;8.27;;;5.50;99.90;;;;;;5013246;28;20556;-54
2024/02/18 06:52:40;;;;;;;25.43;7.23;;;5.50;99.90;;;;;;5014607;28;20235;-55
2024/02/18 06:55:06;;;;;;;26.23;7.13;;;5.40;99.90;;;;;;5017262;28;20674;-52
2024/02/18 06:57:32;;;;;;;21.43;7.33;;;5.40;99.90;;;;;;5017783;28;20184;-55
2024/02/18 06:59:58;;;;;;;16.00;7.03;;;5.50;99.90;;;;;;5025785;28;20180;-55
2024/02/18 07:02:24;;;;;;;18.27;7.93;;;5.40;99.90;;;;;;5021933;28;20212;-54
2024/02/18 07:04:49;;;;;;;19.23;7.23;;;5.50;99.90;;;;;;5033767;28;20182;-55
2024/02/18 07:07:15;;;;;;;15.50;7.37;;;5.50;99.90;;;;;;5026421;28;20723;-52
2024/02/18 07:09:42;;;;;;;18.73;7.57;;;5.60;99.90;;;;;;5033327;28;20691;-54
2024/02/18 07:12:08;;;;;;;28.30;7.80;;;5.60;99.90;;;;;;5040112;28;20203;-55
2024/02/18 07:14:35;;;;;;;20.00;8.17;;;5.60;99.90;;;;;;5037098;28;20237;-54
2024/02/18 07:17:02;;;;;;;19.27;6.90;;;5.60;99.90;;;;;;5039784;28;20186;-55
2024/02/18 07:19:27;;;;;;;15.53;7.80;;;5.60;99.90;;;;;;5052046;28;20270;-54
2024/02/18 07:21:53;;;;;;;17.27;7.23;;;5.60;99.90;;;;;;5035796;28;20287;-52
2024/02/18 07:24:18;;;;;;;14.67;7.03;;;5.70;99.90;;;;;;5042939;28;20184;-53
2024/02/18 07:26:44;;;;;;;19.90;8.10;;;5.70;99.90;;;;;;5047365;28;20189;-55
2024/02/18 07:29:10;;;;;;;21.17;8.00;;;5.80;99.90;;;;;;5024493;28;20242;-56
2024/02/18 07:31:36;;;;;;;26.30;7.77;;;5.80;99.90;;;;;;5032622;28;20292;-54
2024/02/18 07:34:04;;;;;;;25.63;8.60;;;5.80;99.90;;;;;;5014842;28;20182;-56
2024/02/18 07:36:31;;;;;;;25.67;8.97;;;5.80;99.90;;;;;;5039887;28;20211;-52
2024/02/18 07:38:57;;;;;;;30.77;8.20;;;5.90;99.90;;;;;;5012979;28;20216;-55
2024/02/18 07:41:24;;;;;;;27.20;9.27;;;5.80;99.90;;;;;;5034028;28;20227;-57
2024/02/18 07:43:51;;;;;;;19.47;8.53;;;5.70;99.90;;;;;;5032894;28;20663;-58
2024/02/18 07:46:16;;;;;;;48.17;11.07;;;5.80;99.90;;;;;;5029980;28;20187;-56
2024/02/18 07:48:42;;;;;;;52.60;10.50;;;5.80;99.90;;;;;;5046685;28;20647;-52
2024/02/18 07:51:09;;;;;;;41.77;10.37;;;5.60;99.90;;;;;;5035742;28;20200;-52
2024/02/18 07:53:35;;;;;;;41.33;9.60;;;5.60;99.90;;;;;;5027566;28;20195;-56
2024/02/18 07:56:01;;;;;;;22.47;9.10;;;5.70;99.90;;;;;;5047735;28;20180;-52
2024/02/18 07:58:26;;;;;;;20.33;8.50;;;5.80;99.90;;;;;;5037214;28;20667;-57
2024/02/18 08:00:52;;;;;;;39.57;8.90;;;5.90;99.90;;;;;;5031159;28;20232;-52
2024/02/18 08:03:18;;;;;;;58.73;9.50;;;6.00;99.90;;;;;;5003961;28;20621;-54
2024/02/18 08:05:43;;;;;;;51.90;9.60;;;6.00;99.90;;;;;;5049935;28;20237;-54
2024/02/18 08:08:09;;;;;;;32.83;9.00;;;6.00;99.90;;;;;;5014482;28;20227;-59
2024/02/18 08:10:34;;;;;;;23.97;8.60;;;6.10;99.90;;;;;;5031314;28;20203;-54
2024/02/18 08:13:00;;;;;;;25.43;8.57;;;6.20;99.90;;;;;;5036553;28;20637;-53
2024/02/18 08:15:25;;;;;;;21.67;8.07;;;6.20;99.90;;;;;;5040120;28;20204;-56
2024/02/18 08:17:51;;;;;;;24.60;7.90;;;6.20;99.90;;;;;;5047268;28;20198;-59
2024/02/18 08:20:16;;;;;;;13.80;7.10;;;6.20;99.90;;;;;;5021306;28;20198;-56
2024/02/18 08:22:42;;;;;;;22.20;8.00;;;6.10;99.90;;;;;;5051078;28;20271;-56
2024/02/18 08:25:09;;;;;;;24.80;8.67;;;6.10;99.90;;;;;;5035325;28;20188;-57
2024/02/18 08:27:35;;;;;;;16.20;7.57;;;5.90;99.90;;;;;;5018726;28;20207;-57
2024/02/18 08:30:01;;;;;;;15.23;7.47;;;6.00;99.90;;;;;;5040581;28;20336;-53
2024/02/18 08:32:27;;;;;;;18.30;8.13;;;6.10;99.90;;;;;;5026211;28;20204;-56
2024/02/18 08:34:52;;;;;;;13.53;8.13;;;6.20;99.90;;;;;;5021143;28;20195;-56
2024/02/18 08:37:18;;;;;;;14.83;7.20;;;6.30;99.90;;;;;;5010719;28;20184;-56
2024/02/18 08:39:43;;;;;;;17.53;8.83;;;6.50;99.90;;;;;;5036603;28;20612;-56
2024/02/18 08:42:09;;;;;;;17.37;7.90;;;6.30;99.90;;;;;;5034039;28;20207;-56
2024/02/18 08:44:36;;;;;;;13.20;7.13;;;6.40;99.90;;;;;;5035865;28;20562;-55
2024/02/18 08:47:02;;;;;;;13.30;7.60;;;6.60;99.90;;;;;;5042775;28;20299;-57
2024/02/18 08:49:28;;;;;;;16.23;7.87;;;6.60;99.90;;;;;;5011186;28;20200;-58
2024/02/18 08:51:54;;;;;;;19.50;9.07;;;6.60;99.90;;;;;;5035442;28;20203;-56
2024/02/18 08:54:20;;;;;;;20.90;10.40;;;6.60;99.90;;;;;;5032945;28;20219;-56
2024/02/18 08:56:45;;;;;;;22.60;9.50;;;6.70;99.90;;;;;;5031277;28;20254;-54
2024/02/18 08:59:11;;;;;;;35.77;14.77;;;6.70;99.90;;;;;;5042268;28;20192;-55
2024/02/18 09:01:36;;;;;;;25.23;12.23;;;6.60;99.90;;;;;;5014682;28;20212;-56
2024/02/18 09:04:02;;;;;;;21.60;10.37;;;6.60;99.90;;;;;;5021883;28;20623;-58
2024/02/18 09:06:28;;;;;;;19.97;9.73;;;6.70;99.90;;;;;;5044944;28;20195;-57
2024/02/18 09:08:54;;;;;;;18.80;9.40;;;6.80;99.90;;;;;;5033948;28;20235;-57
2024/02/18 09:11:19;;;;;;;19.70;9.30;;;6.90;99.90;;;;;;5033841;28;20286;-56
2024/02/18 09:13:45;;;;;;;16.53;9.10;;;7.10;99.90;;;;;;5024301;28;20421;-53
2024/02/18 09:16:11;;;;;;;18.83;9.97;;;7.20;99.90;;;;;;5035371;28;20171;-55
2024/02/18 09:18:37;;;;;;;18.83;9.97;;;7.20;99.90;;;;;;5026563;28;20564;-55
2024/02/18 09:21:03;;;;;;;19.03;9.17;;;7.10;99.90;;;;;;5033818;28;20209;-55
2024/02/18 09:23:28;;;;;;;15.87;8.73;;;7.20;99.90;;;;;;5044111;28;20274;-56
2024/02/18 09:25:54;;;;;;;18.77;9.20;;;7.20;99.90;;;;;;5046493;28;20199;-56
2024/02/18 09:28:20;;;;;;;16.87;8.80;;;7.30;99.90;;;;;;5032831;28;20217;-56
2024/02/18 09:30:46;;;;;;;21.20;10.20;;;7.30;99.90;;;;;;5026114;28;20222;-57
2024/02/18 09:33:11;;;;;;;17.23;9.03;;;7.30;99.90;;;;;;5010577;28;20636;-55
2024/02/18 09:35:37;;;;;;;17.87;9.73;;;7.30;99.90;;;;;;5033620;28;20183;-57
2024/02/18 09:38:09;;;;;;;19.87;9.87;;;7.30;99.90;;;;;;5032608;28;20222;-57
2024/02/18 09:40:37;;;;;;;28.07;12.27;;;7.30;99.90;;;;;;5033704;28;20229;-58
2024/02/18 09:43:03;;;;;;;19.40;9.70;;;7.40;99.90;;;;;;5048891;28;20199;-56
2024/02/18 09:45:32;;;;;;;18.03;10.17;;;7.50;99.90;;;;;;5036290;28;20189;-59
2024/02/18 09:48:00;;;;;;;16.70;9.53;;;7.60;99.90;;;;;;5027755;28;20298;-54
2024/02/18 09:50:30;;;;;;;19.00;10.03;;;7.50;99.90;;;;;;5031481;28;20208;-55
2024/02/18 09:52:55;;;;;;;16.97;9.03;;;7.50;99.90;;;;;;5021491;28;20180;-58
2024/02/18 09:55:21;;;;;;;17.37;9.47;;;7.60;99.90;;;;;;5043765;28;20180;-54
2024/02/18 09:57:46;;;;;;;14.47;8.67;;;7.70;99.90;;;;;;5036959;28;20194;-56
2024/02/18 10:00:13;;;;;;;14.77;8.27;;;7.80;99.90;;;;;;5033282;28;20201;-58
2024/02/18 10:02:39;;;;;;;15.47;7.97;;;7.80;99.90;;;;;;5040538;28;20191;-55
2024/02/18 10:05:05;;;;;;;15.83;8.10;;;7.60;99.90;;;;;;5024634;28;20179;-59
2024/02/18 10:07:32;;;;;;;16.47;8.70;;;7.80;99.90;;;;;;5032193;28;20272;-56
2024/02/18 10:09:58;;;;;;;16.97;8.20;;;7.90;99.90;;;;;;5040770;28;20648;-54
2024/02/18 10:12:24;;;;;;;18.50;9.27;;;8.00;99.90;;;;;;5032694;28;20289;-57
2024/02/18 10:15:03;;;;;;;14.20;8.40;;;8.00;99.90;;;;;;5047447;28;20278;-55
2024/02/18 10:17:28;;;;;;;14.03;7.50;;;8.10;99.90;;;;;;5028426;28;20191;-54
2024/02/18 10:19:55;;;;;;;13.00;6.93;;;8.30;99.90;;;;;;5039131;28;20241;-53
2024/02/18 10:22:24;;;;;;;12.10;6.40;;;8.50;99.90;;;;;;5043292;28;20207;-55
2024/02/18 10:24:54;;;;;;;14.47;6.77;;;8.60;99.90;;;;;;5038123;28;20196;-55
2024/02/18 10:27:20;;;;;;;12.90;6.90;;;8.80;99.90;;;;;;5030015;28;20211;-56
2024/02/18 10:29:49;;;;;;;11.17;6.47;;;8.90;99.90;;;;;;5025299;28;20197;-54
2024/02/18 10:32:16;;;;;;;13.33;7.37;;;9.10;99.90;;;;;;5026277;28;20506;-55
2024/02/18 10:34:45;;;;;;;12.27;6.60;;;9.10;99.90;;;;;;5048705;28;20179;-56
2024/02/18 10:37:18;;;;;;;12.30;6.70;;;9.30;99.90;;;;;;5024877;28;20175;-57
2024/02/18 10:39:47;;;;;;;12.23;6.47;;;9.40;99.90;;;;;;5048039;28;20179;-57
2024/02/18 10:42:15;;;;;;;11.80;6.47;;;9.40;99.90;;;;;;5032472;28;20208;-56
2024/02/18 10:44:44;;;;;;;11.33;6.97;;;9.40;99.90;;;;;;5033555;28;20237;-56
2024/02/18 10:47:15;;;;;;;14.87;7.10;;;9.40;99.90;;;;;;5036228;28;20558;-55
2024/02/18 10:50:10;;;;;;;15.10;6.83;;;9.20;99.90;;;;;;5036600;28;20270;-56
2024/02/18 10:52:46;;;;;;;18.47;6.83;;;9.30;99.90;;;;;;4997238;28;20191;-54
2024/02/18 10:55:19;;;;;;;12.40;6.77;;;9.50;99.90;;;;;;5017021;28;20175;-53
2024/02/18 10:58:10;;;;;;;20.60;8.53;;;9.70;99.90;;;;;;5040812;28;20197;-55
2024/02/18 11:00:40;;;;;;;12.77;5.70;;;9.70;99.90;;;;;;5029413;28;20208;-56
2024/02/18 11:03:16;;;;;;;8.83;3.87;;;9.60;99.90;;;;;;5043648;28;20186;-55
2024/02/18 11:05:44;;;;;;;10.10;4.20;;;9.40;99.90;;;;;;5035974;28;20184;-54
2024/02/18 11:08:10;;;;;;;7.70;3.77;;;9.30;99.90;;;;;;5031369;28;20195;-55
2024/02/18 11:10:37;;;;;;;13.83;4.10;;;9.20;99.90;;;;;;5032307;28;20192;-56
2024/02/18 11:13:07;;;;;;;5.97;3.53;;;9.00;99.90;;;;;;5029270;28;20514;-53
2024/02/18 11:15:34;;;;;;;12.47;3.80;;;8.90;99.90;;;;;;5026416;28;20206;-54
2024/02/18 11:18:01;;;;;;;7.50;3.77;;;9.00;99.90;;;;;;5026783;28;20187;-56
2024/02/18 11:20:27;;;;;;;9.70;4.73;;;9.00;99.90;;;;;;5040180;28;20189;-56
2024/02/18 11:22:53;;;;;;;6.03;3.60;;;9.00;99.90;;;;;;5015002;28;20547;-53
2024/02/18 11:25:18;;;;;;;7.40;4.00;;;9.00;99.90;;;;;;5025383;28;20203;-56
2024/02/18 11:27:44;;;;;;;6.70;3.73;;;8.90;99.90;;;;;;5019739;28;20215;-56
2024/02/18 11:30:10;;;;;;;10.03;3.63;;;9.00;99.90;;;;;;5043895;28;20179;-59
2024/02/18 11:32:36;;;;;;;6.93;3.70;;;8.90;99.90;;;;;;5044410;28;20584;-55
2024/02/18 11:35:09;;;;;;;8.37;3.67;;;8.90;99.90;;;;;;5034614;28;20204;-57
2024/02/18 11:37:36;;;;;;;6.67;3.73;;;8.80;99.90;;;;;;5042928;28;20193;-53
2024/02/18 11:40:06;;;;;;;6.80;3.13;;;8.80;99.90;;;;;;5029574;28;20226;-53
2024/02/18 11:42:35;;;;;;;5.93;3.30;;;8.80;99.90;;;;;;5033790;28;20223;-54
2024/02/18 11:45:14;;;;;;;8.57;3.80;;;8.90;99.90;;;;;;5052022;28;20191;-56
2024/02/18 11:47:46;;;;;;;10.10;3.70;;;9.00;99.90;;;;;;5043706;28;20687;-57
2024/02/18 11:50:12;;;;;;;6.70;3.13;;;8.90;99.90;;;;;;5025188;28;20758;-54
2024/02/18 11:52:40;;;;;;;10.13;3.50;;;9.00;99.90;;;;;;5032779;28;20886;-55
2024/02/18 11:55:20;;;;;;;9.57;3.20;;;9.00;99.90;;;;;;5027395;28;20233;-57
2024/02/18 11:57:47;;;;;;;7.23;3.20;;;9.10;99.90;;;;;;5035474;28;20239;-56
2024/02/18 12:00:13;;;;;;;7.10;3.33;;;9.20;99.90;;;;;;5027900;28;20192;-58
2024/02/18 12:02:44;;;;;;;5.77;3.37;;;9.20;99.90;;;;;;5035883;28;20218;-58
2024/02/18 12:05:10;;;;;;;8.40;2.73;;;9.10;99.90;;;;;;5036135;28;20312;-54
2024/02/18 12:07:38;;;;;;;6.77;3.10;;;9.10;99.90;;;;;;5036196;28;20710;-57
2024/02/18 12:10:04;;;;;;;4.67;2.67;;;9.10;99.90;;;;;;5051257;28;20611;-55
2024/02/18 12:12:31;;;;;;;4.73;2.87;;;9.10;99.90;;;;;;5045427;28;20203;-56
2024/02/18 12:14:57;;;;;;;6.67;2.63;;;9.20;99.90;;;;;;5033997;28;20517;-57
2024/02/18 12:17:23;;;;;;;5.90;3.03;;;9.20;99.90;;;;;;5039972;28;20195;-57
2024/02/18 12:19:52;;;;;;;7.53;3.23;;;9.30;99.90;;;;;;5037754;28;20191;-60
2024/02/18 12:22:24;;;;;;;5.80;2.90;;;9.30;99.90;;;;;;5047320;28;20192;-53
2024/02/18 12:24:51;;;;;;;5.03;2.87;;;9.20;99.90;;;;;;5030534;28;20183;-58
2024/02/18 12:27:18;;;;;;;5.80;2.70;;;9.20;99.90;;;;;;5020689;28;20638;-56
2024/02/18 12:29:45;;;;;;;7.40;3.20;;;9.20;99.90;;;;;;5035394;28;20194;-56
2024/02/18 12:32:11;;;;;;;6.50;3.40;;;9.20;99.90;;;;;;5015335;28;20204;-54
2024/02/18 12:34:37;;;;;;;7.57;3.03;;;9.10;99.90;;;;;;5047190;28;20715;-58
2024/02/18 12:37:03;;;;;;;4.87;2.70;;;9.20;99.90;;;;;;5034222;28;20217;-54
2024/02/18 12:39:28;;;;;;;;;;;9.30;99.90;;;;;;5043205;28;20665;-57